sensor_id;sensor_type;location;lat;lon;timestamp;temperature;humidity
11214;DHT22;5664;48.606;13.456;2023-04-01T00:01:18;22.50;53.50
11214;DHT22;5664;48.606;13.456;2023-04-01T00:03:44;22.50;53.50
11214;DHT22;5664;48.606;13.456;2023-04-01T00:06:11;22.40;53.50
11214;DHT22;5664;48.606;13.456;2023-04-01T00:08:38;22.40;53.40
11214;DHT22;5664;48.606;13.456;2023-04-01T00:11:03;22.40;53.50
11214;DHT22;5664;48.606;13.456;2023-04-01T00:13:29;22.50;53.50
11214;DHT22;5664;48.606;13.456;2023-04-01T00:15:54;22.40;53.50
11214;DHT22;5664;48.606;13.456;2023-04-01T00:18:20;22.40;53.00
11214;DHT22;5664;48.606;13.456;2023-04-01T00:20:46;22.40;53.50
11214;DHT22;5664;48.606;13.456;2023-04-01T00:23:12;22.40;53.50
11214;DHT22;5664;48.606;13.456;2023-04-01T00:25:38;22.40;53.50
11214;DHT22;5664;48.606;13.456;2023-04-01T00:28:03;22.40;53.50
11214;DHT22;5664;48.606;13.456;2023-04-01T00:30:28;22.40;53.60
11214;DHT22;5664;48.606;13.456;2023-04-01T00:32:54;22.40;53.60
11214;DHT22;5664;48.606;13.456;2023-04-01T00:35:19;22.40;53.60
11214;DHT22;5664;48.606;13.456;2023-04-01T00:37:45;22.40;53.50
11214;DHT22;5664;48.606;13.456;2023-04-01T00:40:21;22.40;53.60
11214;DHT22;5664;48.606;13.456;2023-04-01T00:42:47;22.40;53.50
11214;DHT22;5664;48.606;13.456;2023-04-01T00:47:54;22.40;53.50
11214;DHT22;5664;48.606;13.456;2023-04-01T00:50:21;22.40;53.50
11214;DHT22;5664;48.606;13.456;2023-04-01T00:52:47;22.40;53.40
11214;DHT22;5664;48.606;13.456;2023-04-01T00:55:13;22.40;53.40
11214;DHT22;5664;48.606;13.456;2023-04-01T00:57:39;22.40;54.00
11214;DHT22;5664;48.606;13.456;2023-04-01T01:00:09;22.50;53.40
11214;DHT22;5664;48.606;13.456;2023-04-01T01:02:36;22.40;53.30
11214;DHT22;5664;48.606;13.456;2023-04-01T01:05:01;22.50;53.30
11214;DHT22;5664;48.606;13.456;2023-04-01T01:12:46;22.50;53.20
11214;DHT22;5664;48.606;13.456;2023-04-01T01:15:23;22.50;53.20
11214;DHT22;5664;48.606;13.456;2023-04-01T01:17:53;22.50;53.20
11214;DHT22;5664;48.606;13.456;2023-04-01T01:26:53;22.50;53.10
11214;DHT22;5664;48.606;13.456;2023-04-01T01:28:50;22.50;53.10
11214;DHT22;5664;48.606;13.456;2023-04-01T01:31:23;22.50;53.10
11214;DHT22;5664;48.606;13.456;2023-04-01T01:36:19;22.50;53.10
11214;DHT22;5664;48.606;13.456;2023-04-01T01:38:46;22.50;53.10
11214;DHT22;5664;48.606;13.456;2023-04-01T01:41:13;22.50;53.10
11214;DHT22;5664;48.606;13.456;2023-04-01T01:43:42;22.50;53.10
11214;DHT22;5664;48.606;13.456;2023-04-01T01:46:10;22.50;53.00
11214;DHT22;5664;48.606;13.456;2023-04-01T01:48:36;22.50;53.00
11214;DHT22;5664;48.606;13.456;2023-04-01T01:51:03;22.50;53.00
11214;DHT22;5664;48.606;13.456;2023-04-01T01:53:30;22.50;53.00
11214;DHT22;5664;48.606;13.456;2023-04-01T01:55:55;22.50;53.00
11214;DHT22;5664;48.606;13.456;2023-04-01T02:00:50;22.50;53.00
11214;DHT22;5664;48.606;13.456;2023-04-01T02:03:17;22.50;53.00
11214;DHT22;5664;48.606;13.456;2023-04-01T02:05:43;22.50;53.00
11214;DHT22;5664;48.606;13.456;2023-04-01T02:11:08;22.50;53.00
11214;DHT22;5664;48.606;13.456;2023-04-01T02:16:02;22.50;53.00
11214;DHT22;5664;48.606;13.456;2023-04-01T02:18:30;22.50;53.00
11214;DHT22;5664;48.606;13.456;2023-04-01T02:20:57;22.50;53.00
11214;DHT22;5664;48.606;13.456;2023-04-01T02:23:25;22.50;53.00
11214;DHT22;5664;48.606;13.456;2023-04-01T02:25:50;22.50;53.00
11214;DHT22;5664;48.606;13.456;2023-04-01T02:28:16;22.50;53.00
11214;DHT22;5664;48.606;13.456;2023-04-01T02:30:45;22.50;53.00
11214;DHT22;5664;48.606;13.456;2023-04-01T02:33:10;22.50;53.00
11214;DHT22;5664;48.606;13.456;2023-04-01T02:35:36;22.50;53.00
11214;DHT22;5664;48.606;13.456;2023-04-01T02:38:02;22.40;53.00
11214;DHT22;5664;48.606;13.456;2023-04-01T02:40:28;22.40;53.00
11214;DHT22;5664;48.606;13.456;2023-04-01T02:42:53;22.50;53.00
11214;DHT22;5664;48.606;13.456;2023-04-01T02:45:19;22.50;53.10
11214;DHT22;5664;48.606;13.456;2023-04-01T02:47:44;22.50;53.00
11214;DHT22;5664;48.606;13.456;2023-04-01T02:50:10;22.50;52.90
11214;DHT22;5664;48.606;13.456;2023-04-01T02:52:36;22.50;52.90
11214;DHT22;5664;48.606;13.456;2023-04-01T02:55:02;22.50;52.90
11214;DHT22;5664;48.606;13.456;2023-04-01T02:57:27;22.50;52.90
11214;DHT22;5664;48.606;13.456;2023-04-01T02:59:53;22.50;52.80
11214;DHT22;5664;48.606;13.456;2023-04-01T03:02:18;22.50;52.80
11214;DHT22;5664;48.606;13.456;2023-04-01T03:04:44;22.50;52.80
11214;DHT22;5664;48.606;13.456;2023-04-01T03:07:10;22.50;52.70
11214;DHT22;5664;48.606;13.456;2023-04-01T03:09:36;22.50;52.70
11214;DHT22;5664;48.606;13.456;2023-04-01T03:12:02;22.50;52.70
11214;DHT22;5664;48.606;13.456;2023-04-01T03:14:27;22.50;52.70
11214;DHT22;5664;48.606;13.456;2023-04-01T03:16:53;22.50;52.70
11214;DHT22;5664;48.606;13.456;2023-04-01T03:19:18;22.50;52.70
11214;DHT22;5664;48.606;13.456;2023-04-01T03:21:44;22.50;52.80
11214;DHT22;5664;48.606;13.456;2023-04-01T03:24:09;22.50;52.80
11214;DHT22;5664;48.606;13.456;2023-04-01T03:26:35;22.50;52.80
11214;DHT22;5664;48.606;13.456;2023-04-01T03:29:00;22.50;52.80
11214;DHT22;5664;48.606;13.456;2023-04-01T03:31:26;22.50;52.80
11214;DHT22;5664;48.606;13.456;2023-04-01T03:33:51;22.50;52.80
11214;DHT22;5664;48.606;13.456;2023-04-01T03:36:17;22.50;52.80
11214;DHT22;5664;48.606;13.456;2023-04-01T03:38:43;22.50;52.80
11214;DHT22;5664;48.606;13.456;2023-04-01T03:41:16;22.50;52.80
11214;DHT22;5664;48.606;13.456;2023-04-01T03:43:42;22.50;52.70
11214;DHT22;5664;48.606;13.456;2023-04-01T03:46:08;22.50;52.70
11214;DHT22;5664;48.606;13.456;2023-04-01T03:48:34;22.50;52.70
11214;DHT22;5664;48.606;13.456;2023-04-01T03:50:59;22.50;52.70
11214;DHT22;5664;48.606;13.456;2023-04-01T03:53:25;22.50;52.60
11214;DHT22;5664;48.606;13.456;2023-04-01T03:55:50;22.50;52.60
11214;DHT22;5664;48.606;13.456;2023-04-01T03:58:18;22.50;52.60
11214;DHT22;5664;48.606;13.456;2023-04-01T04:00:44;22.50;52.60
11214;DHT22;5664;48.606;13.456;2023-04-01T04:03:10;22.50;53.20
11214;DHT22;5664;48.606;13.456;2023-04-01T04:05:35;22.50;52.60
11214;DHT22;5664;48.606;13.456;2023-04-01T04:08:01;22.50;52.60
11214;DHT22;5664;48.606;13.456;2023-04-01T04:10:26;22.50;52.60
11214;DHT22;5664;48.606;13.456;2023-04-01T04:12:54;22.50;52.60
11214;DHT22;5664;48.606;13.456;2023-04-01T04:15:19;22.50;52.50
11214;DHT22;5664;48.606;13.456;2023-04-01T04:17:45;22.50;52.60
11214;DHT22;5664;48.606;13.456;2023-04-01T04:20:11;22.50;52.50
11214;DHT22;5664;48.606;13.456;2023-04-01T04:22:36;22.50;52.50
11214;DHT22;5664;48.606;13.456;2023-04-01T04:25:02;22.60;52.50
11214;DHT22;5664;48.606;13.456;2023-04-01T04:27:27;22.70;52.30
11214;DHT22;5664;48.606;13.456;2023-04-01T04:29:53;22.90;52.00
11214;DHT22;5664;48.606;13.456;2023-04-01T04:32:18;23.00;51.80
11214;DHT22;5664;48.606;13.456;2023-04-01T04:34:44;23.20;51.50
11214;DHT22;5664;48.606;13.456;2023-04-01T04:37:09;23.30;51.10
11214;DHT22;5664;48.606;13.456;2023-04-01T04:39:35;23.40;50.80
11214;DHT22;5664;48.606;13.456;2023-04-01T04:42:00;23.60;50.60
11214;DHT22;5664;48.606;13.456;2023-04-01T04:44:26;23.70;50.30
11214;DHT22;5664;48.606;13.456;2023-04-01T04:46:51;23.80;50.10
11214;DHT22;5664;48.606;13.456;2023-04-01T04:49:17;23.90;49.90
11214;DHT22;5664;48.606;13.456;2023-04-01T04:51:42;24.00;49.70
11214;DHT22;5664;48.606;13.456;2023-04-01T04:54:07;24.00;49.60
11214;DHT22;5664;48.606;13.456;2023-04-01T04:56:33;24.10;49.40
11214;DHT22;5664;48.606;13.456;2023-04-01T04:58:58;24.20;49.30
11214;DHT22;5664;48.606;13.456;2023-04-01T05:01:24;24.20;49.10
11214;DHT22;5664;48.606;13.456;2023-04-01T05:03:50;24.20;49.00
11214;DHT22;5664;48.606;13.456;2023-04-01T05:06:15;24.30;49.00
11214;DHT22;5664;48.606;13.456;2023-04-01T05:08:41;24.30;48.90
11214;DHT22;5664;48.606;13.456;2023-04-01T05:11:15;24.30;48.80
11214;DHT22;5664;48.606;13.456;2023-04-01T05:13:41;24.40;48.80
11214;DHT22;5664;48.606;13.456;2023-04-01T05:16:10;24.40;48.70
11214;DHT22;5664;48.606;13.456;2023-04-01T05:18:36;24.50;48.60
11214;DHT22;5664;48.606;13.456;2023-04-01T05:21:01;24.40;48.50
11214;DHT22;5664;48.606;13.456;2023-04-01T05:23:26;24.40;48.10
11214;DHT22;5664;48.606;13.456;2023-04-01T05:25:52;24.40;48.00
11214;DHT22;5664;48.606;13.456;2023-04-01T05:28:18;24.40;48.40
11214;DHT22;5664;48.606;13.456;2023-04-01T05:30:44;24.40;48.50
11214;DHT22;5664;48.606;13.456;2023-04-01T05:33:11;24.40;48.50
11214;DHT22;5664;48.606;13.456;2023-04-01T05:35:36;24.50;48.50
11214;DHT22;5664;48.606;13.456;2023-04-01T05:38:02;24.40;48.40
11214;DHT22;5664;48.606;13.456;2023-04-01T05:40:28;24.40;48.40
11214;DHT22;5664;48.606;13.456;2023-04-01T05:42:53;24.50;48.40
11214;DHT22;5664;48.606;13.456;2023-04-01T05:45:19;24.20;48.30
11214;DHT22;5664;48.606;13.456;2023-04-01T05:47:44;24.50;48.40
11214;DHT22;5664;48.606;13.456;2023-04-01T05:50:10;24.50;48.40
11214;DHT22;5664;48.606;13.456;2023-04-01T05:52:36;24.50;48.30
11214;DHT22;5664;48.606;13.456;2023-04-01T05:55:02;24.50;48.30
11214;DHT22;5664;48.606;13.456;2023-04-01T05:57:27;24.50;48.30
11214;DHT22;5664;48.606;13.456;2023-04-01T05:59:53;24.50;48.20
11214;DHT22;5664;48.606;13.456;2023-04-01T06:02:18;24.50;48.40
11214;DHT22;5664;48.606;13.456;2023-04-01T06:04:44;24.50;48.20
11214;DHT22;5664;48.606;13.456;2023-04-01T06:07:14;24.50;48.30
11214;DHT22;5664;48.606;13.456;2023-04-01T06:09:40;24.50;48.10
11214;DHT22;5664;48.606;13.456;2023-04-01T06:14:41;24.40;48.10
11214;DHT22;5664;48.606;13.456;2023-04-01T06:19:57;24.40;48.20
11214;DHT22;5664;48.606;13.456;2023-04-01T06:37:47;24.40;48.30
11214;DHT22;5664;48.606;13.456;2023-04-01T06:45:34;24.40;48.40
11214;DHT22;5664;48.606;13.456;2023-04-01T06:55:44;24.30;48.50
11214;DHT22;5664;48.606;13.456;2023-04-01T06:58:15;24.30;48.60
11214;DHT22;5664;48.606;13.456;2023-04-01T07:00:44;24.30;48.60
11214;DHT22;5664;48.606;13.456;2023-04-01T07:05:40;24.40;48.60
11214;DHT22;5664;48.606;13.456;2023-04-01T07:08:08;24.40;48.70
11214;DHT22;5664;48.606;13.456;2023-04-01T07:10:41;24.30;48.60
11214;DHT22;5664;48.606;13.456;2023-04-01T07:13:30;24.30;48.20
11214;DHT22;5664;48.606;13.456;2023-04-01T07:16:17;24.20;48.30
11214;DHT22;5664;48.606;13.456;2023-04-01T07:18:44;24.20;47.50
11214;DHT22;5664;48.606;13.456;2023-04-01T07:21:19;24.20;48.10
11214;DHT22;5664;48.606;13.456;2023-04-01T07:23:45;24.20;48.50
11214;DHT22;5664;48.606;13.456;2023-04-01T07:26:14;24.20;48.70
11214;DHT22;5664;48.606;13.456;2023-04-01T07:28:40;24.20;48.80
11214;DHT22;5664;48.606;13.456;2023-04-01T07:31:52;24.10;48.90
11214;DHT22;5664;48.606;13.456;2023-04-01T07:44:01;23.70;49.70
11214;DHT22;5664;48.606;13.456;2023-04-01T07:46:40;23.60;49.80
11214;DHT22;5664;48.606;13.456;2023-04-01T07:52:00;23.50;50.20
11214;DHT22;5664;48.606;13.456;2023-04-01T07:59:29;23.40;50.60
11214;DHT22;5664;48.606;13.456;2023-04-01T08:06:58;23.20;50.90
11214;DHT22;5664;48.606;13.456;2023-04-01T08:11:58;23.20;51.00
11214;DHT22;5664;48.606;13.456;2023-04-01T08:14:59;23.10;51.10
11214;DHT22;5664;48.606;13.456;2023-04-01T08:20:14;23.10;51.20
11214;DHT22;5664;48.606;13.456;2023-04-01T08:22:42;23.00;51.30
11214;DHT22;5664;48.606;13.456;2023-04-01T08:25:11;23.00;51.30
11214;DHT22;5664;48.606;13.456;2023-04-01T08:27:46;23.00;51.30
11214;DHT22;5664;48.606;13.456;2023-04-01T08:30:20;23.00;51.40
11214;DHT22;5664;48.606;13.456;2023-04-01T08:33:00;23.00;51.40
11214;DHT22;5664;48.606;13.456;2023-04-01T08:35:37;23.00;51.50
11214;DHT22;5664;48.606;13.456;2023-04-01T08:38:11;22.90;51.40
11214;DHT22;5664;48.606;13.456;2023-04-01T08:48:48;22.90;51.50
11214;DHT22;5664;48.606;13.456;2023-04-01T09:05:03;22.80;51.60
11214;DHT22;5664;48.606;13.456;2023-04-01T09:10:21;22.80;51.60
11214;DHT22;5664;48.606;13.456;2023-04-01T09:15:46;22.80;51.70
11214;DHT22;5664;48.606;13.456;2023-04-01T09:25:58;22.80;51.80
11214;DHT22;5664;48.606;13.456;2023-04-01T09:28:33;22.80;51.80
11214;DHT22;5664;48.606;13.456;2023-04-01T09:33:43;22.70;51.80
11214;DHT22;5664;48.606;13.456;2023-04-01T09:46:32;22.60;52.00
11214;DHT22;5664;48.606;13.456;2023-04-01T09:51:33;22.60;52.10
11214;DHT22;5664;48.606;13.456;2023-04-01T09:54:11;22.50;52.10
11214;DHT22;5664;48.606;13.456;2023-04-01T09:56:52;22.50;52.20
11214;DHT22;5664;48.606;13.456;2023-04-01T09:59:37;22.50;52.30
11214;DHT22;5664;48.606;13.456;2023-04-01T10:12:58;22.30;52.60
11214;DHT22;5664;48.606;13.456;2023-04-01T10:23:11;22.20;52.80
11214;DHT22;5664;48.606;13.456;2023-04-01T10:46:11;22.00;53.10
11214;DHT22;5664;48.606;13.456;2023-04-01T10:53:50;22.00;53.20
11214;DHT22;5664;48.606;13.456;2023-04-01T10:56:32;22.00;52.80
11214;DHT22;5664;48.606;13.456;2023-04-01T10:59:02;22.00;53.20
11214;DHT22;5664;48.606;13.456;2023-04-01T11:12:28;21.90;53.30
11214;DHT22;5664;48.606;13.456;2023-04-01T11:15:06;21.90;53.40
11214;DHT22;5664;48.606;13.456;2023-04-01T11:20:41;21.90;53.40
11214;DHT22;5664;48.606;13.456;2023-04-01T11:30:48;21.80;53.50
11214;DHT22;5664;48.606;13.456;2023-04-01T11:33:18;21.90;53.50
11214;DHT22;5664;48.606;13.456;2023-04-01T11:40:45;21.80;53.60
11214;DHT22;5664;48.606;13.456;2023-04-01T11:43:15;21.80;53.60
11214;DHT22;5664;48.606;13.456;2023-04-01T11:45:47;21.70;53.60
11214;DHT22;5664;48.606;13.456;2023-04-01T11:51:06;21.70;53.70
11214;DHT22;5664;48.606;13.456;2023-04-01T12:01:48;21.60;53.80
11214;DHT22;5664;48.606;13.456;2023-04-01T12:07:03;21.60;53.90
11214;DHT22;5664;48.606;13.456;2023-04-01T12:19:59;21.50;54.00
11214;DHT22;5664;48.606;13.456;2023-04-01T12:27:31;21.50;54.20
11214;DHT22;5664;48.606;13.456;2023-04-01T12:32:31;21.40;54.20
11214;DHT22;5664;48.606;13.456;2023-04-01T12:37:42;21.40;54.30
11214;DHT22;5664;48.606;13.456;2023-04-01T12:42:57;21.40;54.40
11214;DHT22;5664;48.606;13.456;2023-04-01T12:45:34;21.30;54.40
11214;DHT22;5664;48.606;13.456;2023-04-01T12:50:45;21.30;54.50
11214;DHT22;5664;48.606;13.456;2023-04-01T12:53:19;21.30;54.50
11214;DHT22;5664;48.606;13.456;2023-04-01T12:55:50;21.30;54.60
11214;DHT22;5664;48.606;13.456;2023-04-01T13:11:52;21.20;54.70
11214;DHT22;5664;48.606;13.456;2023-04-01T13:14:27;21.20;54.80
11214;DHT22;5664;48.606;13.456;2023-04-01T13:19:49;21.20;54.80
11214;DHT22;5664;48.606;13.456;2023-04-01T13:22:20;21.20;54.80
11214;DHT22;5664;48.606;13.456;2023-04-01T13:25:15;21.20;54.90
11214;DHT22;5664;48.606;13.456;2023-04-01T13:27:40;21.10;54.80
11214;DHT22;5664;48.606;13.456;2023-04-01T13:32:47;21.10;54.80
11214;DHT22;5664;48.606;13.456;2023-04-01T13:35:21;21.10;54.90
11214;DHT22;5664;48.606;13.456;2023-04-01T13:40:25;21.10;54.90
11214;DHT22;5664;48.606;13.456;2023-04-01T13:47:50;21.10;55.00
11214;DHT22;5664;48.606;13.456;2023-04-01T13:52:56;21.10;55.10
11214;DHT22;5664;48.606;13.456;2023-04-01T13:55:59;21.00;55.00
11214;DHT22;5664;48.606;13.456;2023-04-01T13:58:35;21.00;55.10
11214;DHT22;5664;48.606;13.456;2023-04-01T14:01:05;21.00;55.10
11214;DHT22;5664;48.606;13.456;2023-04-01T14:06:23;21.00;55.20
11214;DHT22;5664;48.606;13.456;2023-04-01T14:09:03;21.00;55.20
11214;DHT22;5664;48.606;13.456;2023-04-01T14:11:49;20.90;55.10
11214;DHT22;5664;48.606;13.456;2023-04-01T14:24:36;20.90;55.30
11214;DHT22;5664;48.606;13.456;2023-04-01T14:30:03;20.80;55.30
11214;DHT22;5664;48.606;13.456;2023-04-01T14:32:46;20.80;55.40
11214;DHT22;5664;48.606;13.456;2023-04-01T14:37:58;20.80;55.50
11214;DHT22;5664;48.606;13.456;2023-04-01T14:40:35;20.80;55.50
11214;DHT22;5664;48.606;13.456;2023-04-01T14:50:40;20.80;55.60
11214;DHT22;5664;48.606;13.456;2023-04-01T14:58:13;20.70;55.70
11214;DHT22;5664;48.606;13.456;2023-04-01T15:00:45;20.70;55.70
11214;DHT22;5664;48.606;13.456;2023-04-01T15:03:15;20.70;55.80
11214;DHT22;5664;48.606;13.456;2023-04-01T15:05:46;20.70;55.80
11214;DHT22;5664;48.606;13.456;2023-04-01T15:08:29;20.60;55.80
11214;DHT22;5664;48.606;13.456;2023-04-01T15:16:07;20.60;55.90
11214;DHT22;5664;48.606;13.456;2023-04-01T15:23:34;20.60;55.90
11214;DHT22;5664;48.606;13.456;2023-04-01T15:37:04;20.50;56.00
11214;DHT22;5664;48.606;13.456;2023-04-01T15:39:38;20.50;56.10
11214;DHT22;5664;48.606;13.456;2023-04-01T15:42:14;20.50;56.10
11214;DHT22;5664;48.606;13.456;2023-04-01T15:44:52;20.50;56.10
11214;DHT22;5664;48.606;13.456;2023-04-01T16:00:21;20.30;56.60
11214;DHT22;5664;48.606;13.456;2023-04-01T16:02:48;20.40;56.80
11214;DHT22;5664;48.606;13.456;2023-04-01T16:15:29;20.30;56.60
11214;DHT22;5664;48.606;13.456;2023-04-01T16:18:04;20.30;56.60
11214;DHT22;5664;48.606;13.456;2023-04-01T16:20:44;20.40;56.80
11214;DHT22;5664;48.606;13.456;2023-04-01T16:23:26;20.40;56.80
11214;DHT22;5664;48.606;13.456;2023-04-01T16:26:08;20.30;56.70
11214;DHT22;5664;48.606;13.456;2023-04-01T16:28:54;20.40;56.70
11214;DHT22;5664;48.606;13.456;2023-04-01T16:33:51;20.50;56.50
11214;DHT22;5664;48.606;13.456;2023-04-01T16:36:29;20.70;56.20
11214;DHT22;5664;48.606;13.456;2023-04-01T16:44:24;21.70;54.30
11214;DHT22;5664;48.606;13.456;2023-04-01T16:46:53;21.50;53.40
11214;DHT22;5664;48.606;13.456;2023-04-01T16:49:28;22.30;52.90
11214;DHT22;5664;48.606;13.456;2023-04-01T16:52:00;22.60;52.30
11214;DHT22;5664;48.606;13.456;2023-04-01T16:54:36;22.90;51.80
11214;DHT22;5664;48.606;13.456;2023-04-01T16:59:34;23.30;50.80
11214;DHT22;5664;48.606;13.456;2023-04-01T17:04:37;23.60;50.10
11214;DHT22;5664;48.606;13.456;2023-04-01T17:07:11;23.70;49.80
11214;DHT22;5664;48.606;13.456;2023-04-01T17:12:25;23.90;49.30
11214;DHT22;5664;48.606;13.456;2023-04-01T17:17:42;24.10;49.00
11214;DHT22;5664;48.606;13.456;2023-04-01T17:20:13;24.10;48.90
11214;DHT22;5664;48.606;13.456;2023-04-01T17:27:51;24.20;48.60
11214;DHT22;5664;48.606;13.456;2023-04-01T17:33:03;24.30;48.50
11214;DHT22;5664;48.606;13.456;2023-04-01T17:35:31;24.30;48.50
11214;DHT22;5664;48.606;13.456;2023-04-01T17:40:29;24.30;48.60
11214;DHT22;5664;48.606;13.456;2023-04-01T17:45:55;24.30;48.60
11214;DHT22;5664;48.606;13.456;2023-04-01T17:53:48;24.30;48.60
11214;DHT22;5664;48.606;13.456;2023-04-01T17:56:21;24.30;48.60
11214;DHT22;5664;48.606;13.456;2023-04-01T17:59:09;24.30;48.60
11214;DHT22;5664;48.606;13.456;2023-04-01T18:04:11;24.40;48.60
11214;DHT22;5664;48.606;13.456;2023-04-01T18:09:40;24.40;48.60
11214;DHT22;5664;48.606;13.456;2023-04-01T18:17:23;24.50;48.60
11214;DHT22;5664;48.606;13.456;2023-04-01T18:20:02;24.50;48.70
11214;DHT22;5664;48.606;13.456;2023-04-01T18:22:45;24.50;48.80
11214;DHT22;5664;48.606;13.456;2023-04-01T18:25:22;24.60;48.90
11214;DHT22;5664;48.606;13.456;2023-04-01T18:30:35;24.60;48.90
11214;DHT22;5664;48.606;13.456;2023-04-01T18:38:11;24.70;48.90
11214;DHT22;5664;48.606;13.456;2023-04-01T18:40:42;24.70;48.90
11214;DHT22;5664;48.606;13.456;2023-04-01T18:43:10;24.70;48.90
11214;DHT22;5664;48.606;13.456;2023-04-01T18:45:37;24.70;48.80
11214;DHT22;5664;48.606;13.456;2023-04-01T18:50:55;24.80;48.80
11214;DHT22;5664;48.606;13.456;2023-04-01T18:56:43;24.80;48.70
11214;DHT22;5664;48.606;13.456;2023-04-01T18:58:49;24.80;48.60
11214;DHT22;5664;48.606;13.456;2023-04-01T19:01:35;24.80;48.60
11214;DHT22;5664;48.606;13.456;2023-04-01T19:04:07;24.80;48.60
11214;DHT22;5664;48.606;13.456;2023-04-01T19:06:36;24.80;48.60
11214;DHT22;5664;48.606;13.456;2023-04-01T19:09:12;24.80;48.60
11214;DHT22;5664;48.606;13.456;2023-04-01T19:11:59;24.80;48.70
11214;DHT22;5664;48.606;13.456;2023-04-01T19:14:51;24.70;48.60
11214;DHT22;5664;48.606;13.456;2023-04-01T19:17:24;24.80;48.70
11214;DHT22;5664;48.606;13.456;2023-04-01T19:25:23;24.70;48.70
11214;DHT22;5664;48.606;13.456;2023-04-01T19:27:51;24.70;48.70
11214;DHT22;5664;48.606;13.456;2023-04-01T19:32:46;24.80;48.70
11214;DHT22;5664;48.606;13.456;2023-04-01T19:53:04;24.90;48.40
11214;DHT22;5664;48.606;13.456;2023-04-01T19:55:41;24.90;48.40
11214;DHT22;5664;48.606;13.456;2023-04-01T20:00:37;24.90;48.30
11214;DHT22;5664;48.606;13.456;2023-04-01T20:03:07;24.90;48.30
11214;DHT22;5664;48.606;13.456;2023-04-01T20:10:32;24.90;48.20
11214;DHT22;5664;48.606;13.456;2023-04-01T20:13:09;24.90;48.20
11214;DHT22;5664;48.606;13.456;2023-04-01T20:15:44;25.00;48.30
11214;DHT22;5664;48.606;13.456;2023-04-01T20:18:16;24.90;48.20
11214;DHT22;5664;48.606;13.456;2023-04-01T20:20:52;24.90;48.20
11214;DHT22;5664;48.606;13.456;2023-04-01T20:26:04;24.90;48.30
11214;DHT22;5664;48.606;13.456;2023-04-01T20:28:37;24.90;48.30
11214;DHT22;5664;48.606;13.456;2023-04-01T20:31:12;24.90;48.20
11214;DHT22;5664;48.606;13.456;2023-04-01T20:33:52;24.90;48.30
11214;DHT22;5664;48.606;13.456;2023-04-01T20:38:55;25.00;48.30
11214;DHT22;5664;48.606;13.456;2023-04-01T20:46:39;25.00;48.10
11214;DHT22;5664;48.606;13.456;2023-04-01T20:59:25;25.00;48.20
11214;DHT22;5664;48.606;13.456;2023-04-01T21:04:37;25.00;48.20
11214;DHT22;5664;48.606;13.456;2023-04-01T21:07:22;25.00;48.20
11214;DHT22;5664;48.606;13.456;2023-04-01T21:20:06;24.90;48.50
11214;DHT22;5664;48.606;13.456;2023-04-01T21:22:41;24.90;48.40
11214;DHT22;5664;48.606;13.456;2023-04-01T21:33:35;24.90;48.40
11214;DHT22;5664;48.606;13.456;2023-04-01T21:36:18;24.90;48.30
11214;DHT22;5664;48.606;13.456;2023-04-01T21:38:49;24.90;48.30
11214;DHT22;5664;48.606;13.456;2023-04-01T21:49:08;24.90;48.50
11214;DHT22;5664;48.606;13.456;2023-04-01T21:51:56;24.90;48.50
11214;DHT22;5664;48.606;13.456;2023-04-01T21:57:06;24.90;48.50
11214;DHT22;5664;48.606;13.456;2023-04-01T22:02:11;24.90;48.40
11214;DHT22;5664;48.606;13.456;2023-04-01T22:09:37;24.90;48.50
11214;DHT22;5664;48.606;13.456;2023-04-01T22:12:05;24.80;48.50
11214;DHT22;5664;48.606;13.456;2023-04-01T22:14:54;24.90;48.60
11214;DHT22;5664;48.606;13.456;2023-04-01T22:25:19;25.60;49.10
11214;DHT22;5664;48.606;13.456;2023-04-01T22:27:49;24.80;48.70
11214;DHT22;5664;48.606;13.456;2023-04-01T22:30:22;24.70;48.80
11214;DHT22;5664;48.606;13.456;2023-04-01T22:33:05;24.60;49.00
11214;DHT22;5664;48.606;13.456;2023-04-01T22:43:04;24.00;50.10
11214;DHT22;5664;48.606;13.456;2023-04-01T22:45:35;23.90;50.50
11214;DHT22;5664;48.606;13.456;2023-04-01T22:48:18;23.70;50.70
11214;DHT22;5664;48.606;13.456;2023-04-01T22:50:52;23.60;51.00
11214;DHT22;5664;48.606;13.456;2023-04-01T22:53:24;23.50;51.30
11214;DHT22;5664;48.606;13.456;2023-04-01T22:55:51;23.40;51.50
11214;DHT22;5664;48.606;13.456;2023-04-01T22:58:20;23.30;51.70
11214;DHT22;5664;48.606;13.456;2023-04-01T23:00:50;23.20;51.80
11214;DHT22;5664;48.606;13.456;2023-04-01T23:03:18;23.10;52.00
11214;DHT22;5664;48.606;13.456;2023-04-01T23:05:54;23.10;52.20
11214;DHT22;5664;48.606;13.456;2023-04-01T23:13:19;22.90;52.50
11214;DHT22;5664;48.606;13.456;2023-04-01T23:15:45;22.90;52.60
11214;DHT22;5664;48.606;13.456;2023-04-01T23:18:14;22.80;52.60
11214;DHT22;5664;48.606;13.456;2023-04-01T23:23:30;22.80;52.80
11214;DHT22;5664;48.606;13.456;2023-04-01T23:30:58;22.70;52.90
11214;DHT22;5664;48.606;13.456;2023-04-01T23:33:26;22.70;53.00
11214;DHT22;5664;48.606;13.456;2023-04-01T23:35:57;22.70;53.00
11214;DHT22;5664;48.606;13.456;2023-04-01T23:38:41;22.70;53.00
11214;DHT22;5664;48.606;13.456;2023-04-01T23:41:07;22.70;53.00
11214;DHT22;5664;48.606;13.456;2023-04-01T23:43:36;22.70;53.00
11214;DHT22;5664;48.606;13.456;2023-04-01T23:46:02;22.70;53.00
11214;DHT22;5664;48.606;13.456;2023-04-01T23:51:00;22.70;53.00
11214;DHT22;5664;48.606;13.456;2023-04-01T23:53:28;22.70;53.00
11214;DHT22;5664;48.606;13.456;2023-04-01T23:55:54;22.70;53.00
11214;DHT22;5664;48.606;13.456;2023-04-01T23:58:54;22.70;53.00
